BAW1414 EDDF-EGLL
Flight info
| Callsign | BAW1414 |
|---|---|
| Flight time | 1h 6m |
| Altitude | 34000 |
| Route | OBOKA3M/25C OBOKA Z29 TORNU DCT ABNED L980 LOGAN |
| Aircraft | A20N/M-SDE2E3FGHIRWXY/LB1 |
Departure
| Time | 2026-04-15 15:45 |
|---|---|
| Airport | Frankfurt Main Airport (EDDF) |
Arrival
| Time | 2026-04-15 16:51 |
|---|---|
| Airport | London Heathrow Airport (EGLL) |
| Time | Latitude | Longitude | Altitude | Speed | Heading |
|---|---|---|---|---|---|
| 2026-04-15 14:53 | 50.04747 | 8.57137 | 358 ft | 0 kts | 120° |
| 2026-04-15 15:33 | 50.04760 | 8.57108 | 362 ft | 4 kts | 124° |
| 2026-04-15 15:34 | 50.04774 | 8.57074 | 361 ft | 4 kts | 116° |
| 2026-04-15 15:34 | 50.04785 | 8.57038 | 356 ft | 4 kts | 145° |
| 2026-04-15 15:34 | 50.04790 | 8.57032 | 364 ft | 1 kts | 205° |
| 2026-04-15 15:39 | 50.04738 | 8.56996 | 356 ft | 16 kts | 203° |
| 2026-04-15 15:39 | 50.04607 | 8.56907 | 351 ft | 25 kts | 202° |
| 2026-04-15 15:39 | 50.04420 | 8.56848 | 353 ft | 28 kts | 188° |
| 2026-04-15 15:40 | 50.04292 | 8.56839 | 352 ft | 15 kts | 149° |
| 2026-04-15 15:40 | 50.04296 | 8.56975 | 354 ft | 15 kts | 71° |
| 2026-04-15 15:40 | 50.04340 | 8.57163 | 345 ft | 23 kts | 70° |
| 2026-04-15 15:40 | 50.04404 | 8.57435 | 336 ft | 30 kts | 68° |
| 2026-04-15 15:41 | 50.04479 | 8.57747 | 338 ft | 32 kts | 70° |
| 2026-04-15 15:41 | 50.04556 | 8.58079 | 335 ft | 33 kts | 69° |
| 2026-04-15 15:41 | 50.04639 | 8.58418 | 334 ft | 35 kts | 69° |
| 2026-04-15 15:41 | 50.04601 | 8.58585 | 326 ft | 0 kts | 159° |
| 2026-04-15 15:42 | 50.04579 | 8.58598 | 324 ft | 8 kts | 159° |
| 2026-04-15 15:42 | 50.04498 | 8.58597 | 326 ft | 15 kts | 218° |
| 2026-04-15 15:43 | 50.04476 | 8.58541 | 329 ft | 0 kts | 248° |
| 2026-04-15 15:44 | 50.04474 | 8.58534 | 328 ft | 4 kts | 248° |
| 2026-04-15 15:44 | 50.04397 | 8.58215 | 329 ft | 65 kts | 249° |
| 2026-04-15 15:44 | 50.04166 | 8.57254 | 350 ft | 121 kts | 250° |
| 2026-04-15 15:44 | 50.03821 | 8.55805 | 362 ft | 163 kts | 249° |
| 2026-04-15 15:45 | 50.03434 | 8.54034 | 776 ft | 175 kts | 252° |
| 2026-04-15 15:45 | 50.03075 | 8.52156 | 1387 ft | 185 kts | 255° |
| 2026-04-15 15:45 | 50.02674 | 8.50259 | 2224 ft | 183 kts | 244° |
| 2026-04-15 15:45 | 50.01828 | 8.48719 | 2768 ft | 195 kts | 213° |
| 2026-04-15 15:46 | 50.00618 | 8.48086 | 3148 ft | 203 kts | 186° |
| 2026-04-15 15:46 | 49.99342 | 8.47861 | 3626 ft | 207 kts | 186° |
| 2026-04-15 15:46 | 49.97909 | 8.47569 | 4331 ft | 207 kts | 187° |
| 2026-04-15 15:46 | 49.96482 | 8.47233 | 5131 ft | 207 kts | 188° |
| 2026-04-15 15:47 | 49.95075 | 8.46676 | 5891 ft | 214 kts | 196° |
| 2026-04-15 15:47 | 49.93695 | 8.46029 | 6372 ft | 234 kts | 197° |
| 2026-04-15 15:47 | 49.92279 | 8.45273 | 6925 ft | 245 kts | 207° |
| 2026-04-15 15:47 | 49.91164 | 8.43997 | 7660 ft | 247 kts | 227° |
| 2026-04-15 15:48 | 49.90189 | 8.41787 | 8651 ft | 249 kts | 239° |
| 2026-04-15 15:48 | 49.89300 | 8.39456 | 9648 ft | 253 kts | 240° |
| 2026-04-15 15:48 | 49.88672 | 8.36895 | 10549 ft | 257 kts | 259° |
| 2026-04-15 15:48 | 49.88618 | 8.34105 | 11441 ft | 261 kts | 274° |
| 2026-04-15 15:49 | 49.88791 | 8.31205 | 11973 ft | 281 kts | 274° |
| 2026-04-15 15:49 | 49.89092 | 8.28074 | 12333 ft | 306 kts | 283° |
| 2026-04-15 15:49 | 49.89724 | 8.25430 | 12597 ft | 327 kts | 295° |
| 2026-04-15 15:49 | 49.90881 | 8.22661 | 12994 ft | 343 kts | 305° |
| 2026-04-15 15:50 | 49.92330 | 8.19685 | 13626 ft | 347 kts | 305° |
| 2026-04-15 15:50 | 49.93809 | 8.16735 | 14537 ft | 349 kts | 309° |
| 2026-04-15 15:50 | 49.95540 | 8.14053 | 15306 ft | 355 kts | 317° |
| 2026-04-15 15:50 | 49.97432 | 8.11559 | 16057 ft | 359 kts | 317° |
| 2026-04-15 15:51 | 49.99339 | 8.09024 | 16816 ft | 363 kts | 317° |
| 2026-04-15 15:51 | 50.01241 | 8.06481 | 17546 ft | 367 kts | 317° |
| 2026-04-15 15:51 | 50.03185 | 8.03877 | 18285 ft | 371 kts | 317° |
| 2026-04-15 15:51 | 50.05005 | 8.01435 | 18895 ft | 374 kts | 317° |
| 2026-04-15 15:52 | 50.06781 | 7.99053 | 19510 ft | 376 kts | 317° |
| 2026-04-15 15:52 | 50.08436 | 7.96830 | 20052 ft | 379 kts | 317° |
| 2026-04-15 15:52 | 50.10262 | 7.94376 | 20656 ft | 381 kts | 317° |
| 2026-04-15 15:52 | 50.12282 | 7.91657 | 21305 ft | 384 kts | 317° |
| 2026-04-15 15:53 | 50.14309 | 7.88927 | 21939 ft | 388 kts | 317° |
| 2026-04-15 15:53 | 50.16360 | 7.86161 | 22596 ft | 390 kts | 317° |
| 2026-04-15 15:53 | 50.18413 | 7.83388 | 23229 ft | 393 kts | 317° |
| 2026-04-15 15:53 | 50.20494 | 7.80576 | 23798 ft | 398 kts | 317° |
| 2026-04-15 15:54 | 50.22274 | 7.78167 | 24189 ft | 401 kts | 317° |
| 2026-04-15 15:54 | 50.24285 | 7.75590 | 24690 ft | 404 kts | 321° |
| 2026-04-15 15:54 | 50.26662 | 7.73195 | 25182 ft | 409 kts | 328° |
| 2026-04-15 15:54 | 50.29236 | 7.71242 | 25680 ft | 414 kts | 334° |
| 2026-04-15 15:55 | 50.31892 | 7.69449 | 26155 ft | 416 kts | 334° |
| 2026-04-15 15:55 | 50.34556 | 7.67622 | 26633 ft | 419 kts | 334° |
| 2026-04-15 15:55 | 50.37235 | 7.65776 | 27095 ft | 422 kts | 334° |
| 2026-04-15 15:55 | 50.39930 | 7.63920 | 27559 ft | 424 kts | 334° |
| 2026-04-15 15:56 | 50.42639 | 7.62054 | 27987 ft | 427 kts | 334° |
| 2026-04-15 15:56 | 50.45373 | 7.60170 | 28411 ft | 430 kts | 334° |
| 2026-04-15 15:56 | 50.48117 | 7.58279 | 28828 ft | 432 kts | 334° |
| 2026-04-15 15:56 | 50.50884 | 7.56370 | 29226 ft | 435 kts | 334° |
| 2026-04-15 15:57 | 50.53474 | 7.54581 | 29574 ft | 437 kts | 334° |
| 2026-04-15 15:57 | 50.55761 | 7.52857 | 29883 ft | 438 kts | 329° |
| 2026-04-15 15:57 | 50.58103 | 7.50624 | 30222 ft | 439 kts | 324° |
| 2026-04-15 15:57 | 50.60410 | 7.48237 | 30525 ft | 441 kts | 325° |
| 2026-04-15 15:58 | 50.62988 | 7.45603 | 30854 ft | 444 kts | 324° |
| 2026-04-15 15:58 | 50.65594 | 7.42944 | 31120 ft | 447 kts | 324° |
| 2026-04-15 15:58 | 50.68214 | 7.40264 | 31522 ft | 447 kts | 324° |
| 2026-04-15 15:58 | 50.70774 | 7.37610 | 31968 ft | 445 kts | 321° |
| 2026-04-15 15:59 | 50.73135 | 7.34500 | 32440 ft | 440 kts | 312° |
| 2026-04-15 15:59 | 50.75135 | 7.30887 | 32866 ft | 435 kts | 304° |
| 2026-04-15 15:59 | 50.76749 | 7.26880 | 33299 ft | 431 kts | 295° |
| 2026-04-15 15:59 | 50.78112 | 7.22668 | 33739 ft | 429 kts | 295° |
| 2026-04-15 16:00 | 50.79478 | 7.18480 | 34082 ft | 428 kts | 295° |
| 2026-04-15 16:00 | 50.80802 | 7.14428 | 34153 ft | 426 kts | 295° |
| 2026-04-15 16:00 | 50.83372 | 7.06529 | 34157 ft | 425 kts | 295° |
| 2026-04-15 16:01 | 50.86077 | 6.98170 | 34154 ft | 425 kts | 294° |
| 2026-04-15 16:01 | 50.88760 | 6.89835 | 34153 ft | 425 kts | 294° |
| 2026-04-15 16:02 | 50.91404 | 6.81600 | 34155 ft | 425 kts | 294° |
| 2026-04-15 16:02 | 50.93997 | 6.73499 | 34154 ft | 425 kts | 294° |
| 2026-04-15 16:03 | 50.96653 | 6.65172 | 34161 ft | 426 kts | 294° |
| 2026-04-15 16:03 | 50.99324 | 6.56780 | 34151 ft | 426 kts | 293° |
| 2026-04-15 16:04 | 51.01987 | 6.48380 | 34136 ft | 426 kts | 293° |
| 2026-04-15 16:04 | 51.04647 | 6.39954 | 34138 ft | 426 kts | 293° |
| 2026-04-15 16:05 | 51.07303 | 6.31513 | 34139 ft | 426 kts | 293° |
| 2026-04-15 16:05 | 51.09506 | 6.24491 | 34134 ft | 426 kts | 293° |
| 2026-04-15 16:06 | 51.12148 | 6.16041 | 34146 ft | 426 kts | 292° |
| 2026-04-15 16:06 | 51.14413 | 6.07367 | 34131 ft | 422 kts | 283° |
| 2026-04-15 16:07 | 51.15903 | 5.98345 | 34134 ft | 421 kts | 281° |
| 2026-04-15 16:08 | 51.18137 | 5.84798 | 34135 ft | 422 kts | 283° |
| 2026-04-15 16:08 | 51.20287 | 5.76040 | 34136 ft | 426 kts | 289° |
| 2026-04-15 16:09 | 51.22590 | 5.67325 | 34129 ft | 426 kts | 288° |
| 2026-04-15 16:09 | 51.24882 | 5.58598 | 34130 ft | 427 kts | 288° |
| 2026-04-15 16:10 | 51.27171 | 5.49853 | 34127 ft | 427 kts | 288° |
| 2026-04-15 16:10 | 51.29439 | 5.41160 | 34131 ft | 427 kts | 288° |
| 2026-04-15 16:11 | 51.31719 | 5.32386 | 34126 ft | 427 kts | 288° |
| 2026-04-15 16:11 | 51.33992 | 5.23610 | 34129 ft | 428 kts | 287° |
| 2026-04-15 16:12 | 51.36265 | 5.14800 | 34124 ft | 429 kts | 287° |
| 2026-04-15 16:12 | 51.38536 | 5.05955 | 34119 ft | 429 kts | 287° |
| 2026-04-15 16:13 | 51.40803 | 4.97091 | 34128 ft | 430 kts | 287° |
| 2026-04-15 16:13 | 51.43052 | 4.88267 | 34130 ft | 430 kts | 287° |
| 2026-04-15 16:14 | 51.45309 | 4.79378 | 34152 ft | 431 kts | 287° |
| 2026-04-15 16:14 | 51.47584 | 4.70389 | 34125 ft | 432 kts | 286° |
| 2026-04-15 16:15 | 51.49764 | 4.61723 | 34110 ft | 433 kts | 285° |
| 2026-04-15 16:15 | 51.52016 | 4.52747 | 34110 ft | 433 kts | 285° |
| 2026-04-15 16:16 | 51.54264 | 4.43750 | 34111 ft | 434 kts | 285° |
| 2026-04-15 16:16 | 51.56505 | 4.34744 | 34113 ft | 434 kts | 285° |
| 2026-04-15 16:17 | 51.58739 | 4.25730 | 34113 ft | 434 kts | 285° |
| 2026-04-15 16:17 | 51.60966 | 4.16708 | 34111 ft | 434 kts | 285° |
| 2026-04-15 16:18 | 51.63183 | 4.07689 | 34111 ft | 433 kts | 285° |
| 2026-04-15 16:18 | 51.65393 | 3.98660 | 34107 ft | 433 kts | 285° |
| 2026-04-15 16:19 | 51.67579 | 3.89693 | 34104 ft | 433 kts | 285° |
| 2026-04-15 16:19 | 51.69776 | 3.80651 | 34089 ft | 434 kts | 284° |
| 2026-04-15 16:20 | 51.71966 | 3.71590 | 34093 ft | 434 kts | 284° |
| 2026-04-15 16:20 | 51.74152 | 3.62507 | 34095 ft | 434 kts | 284° |
| 2026-04-15 16:21 | 51.76331 | 3.53421 | 34093 ft | 434 kts | 284° |
| 2026-04-15 16:21 | 51.78494 | 3.44363 | 34098 ft | 435 kts | 284° |
| 2026-04-15 16:22 | 51.80668 | 3.35219 | 34094 ft | 436 kts | 284° |
| 2026-04-15 16:22 | 51.82842 | 3.26039 | 34099 ft | 437 kts | 284° |
| 2026-04-15 16:23 | 51.84313 | 3.16663 | 34095 ft | 425 kts | 270° |
| 2026-04-15 16:23 | 51.84278 | 3.07262 | 34093 ft | 415 kts | 258° |
| 2026-04-15 16:24 | 51.83662 | 2.97971 | 34097 ft | 416 kts | 258° |
| 2026-04-15 16:24 | 51.83064 | 2.88722 | 34103 ft | 417 kts | 258° |
| 2026-04-15 16:25 | 51.82445 | 2.79383 | 34094 ft | 417 kts | 258° |
| 2026-04-15 16:25 | 51.81816 | 2.70062 | 34096 ft | 417 kts | 258° |
| 2026-04-15 16:26 | 51.81179 | 2.60737 | 34088 ft | 417 kts | 257° |
| 2026-04-15 16:26 | 51.80534 | 2.51420 | 34075 ft | 417 kts | 257° |
| 2026-04-15 16:27 | 51.79882 | 2.42104 | 34135 ft | 417 kts | 257° |
| 2026-04-15 16:27 | 51.79227 | 2.32800 | 34063 ft | 414 kts | 256° |
| 2026-04-15 16:28 | 51.78563 | 2.23559 | 34060 ft | 414 kts | 256° |
| 2026-04-15 16:28 | 51.77974 | 2.14373 | 34067 ft | 414 kts | 258° |
| 2026-04-15 16:29 | 51.77450 | 2.05104 | 34056 ft | 414 kts | 258° |
| 2026-04-15 16:29 | 51.76929 | 1.96238 | 34058 ft | 414 kts | 257° |
| 2026-04-15 16:30 | 51.76434 | 1.88027 | 34053 ft | 415 kts | 257° |
| 2026-04-15 16:30 | 51.75867 | 1.78751 | 34053 ft | 415 kts | 257° |
| 2026-04-15 16:31 | 51.75291 | 1.69489 | 34045 ft | 415 kts | 257° |
| 2026-04-15 16:31 | 51.75005 | 1.64900 | 34037 ft | 404 kts | 257° |
| 2026-04-15 16:31 | 51.74734 | 1.60485 | 34039 ft | 387 kts | 256° |
| 2026-04-15 16:31 | 51.74470 | 1.56232 | 33758 ft | 378 kts | 256° |
| 2026-04-15 16:32 | 51.74195 | 1.51999 | 32803 ft | 380 kts | 256° |
| 2026-04-15 16:32 | 51.73907 | 1.47700 | 31325 ft | 392 kts | 256° |
| 2026-04-15 16:32 | 51.73647 | 1.43839 | 29922 ft | 405 kts | 256° |
| 2026-04-15 16:32 | 51.73370 | 1.39688 | 28319 ft | 417 kts | 256° |
| 2026-04-15 16:33 | 51.73070 | 1.35054 | 27251 ft | 412 kts | 256° |
| 2026-04-15 16:33 | 51.72778 | 1.30478 | 26131 ft | 408 kts | 256° |
| 2026-04-15 16:33 | 51.72475 | 1.25873 | 24376 ft | 418 kts | 257° |
| 2026-04-15 16:33 | 51.72151 | 1.21128 | 22323 ft | 433 kts | 257° |
| 2026-04-15 16:34 | 51.71826 | 1.16298 | 20952 ft | 429 kts | 258° |
| 2026-04-15 16:34 | 51.71512 | 1.11571 | 19813 ft | 419 kts | 258° |
| 2026-04-15 16:34 | 51.71202 | 1.06938 | 18650 ft | 412 kts | 258° |
| 2026-04-15 16:34 | 51.70895 | 1.02435 | 17441 ft | 405 kts | 259° |
| 2026-04-15 16:35 | 51.70589 | 0.97978 | 16472 ft | 392 kts | 259° |
| 2026-04-15 16:35 | 51.70301 | 0.93751 | 16133 ft | 366 kts | 259° |
| 2026-04-15 16:35 | 51.70056 | 0.90119 | 15897 ft | 343 kts | 258° |
| 2026-04-15 16:35 | 51.69802 | 0.86415 | 15618 ft | 323 kts | 258° |
| 2026-04-15 16:36 | 51.69547 | 0.82828 | 15346 ft | 325 kts | 258° |
| 2026-04-15 16:36 | 51.69293 | 0.79268 | 15067 ft | 310 kts | 258° |
| 2026-04-15 16:36 | 51.69057 | 0.75910 | 14796 ft | 293 kts | 258° |
| 2026-04-15 16:36 | 51.68836 | 0.72746 | 14525 ft | 277 kts | 258° |
| 2026-04-15 16:37 | 51.68623 | 0.69737 | 14255 ft | 263 kts | 258° |
| 2026-04-15 16:37 | 51.68419 | 0.66931 | 14009 ft | 266 kts | 258° |
| 2026-04-15 16:37 | 51.68201 | 0.63965 | 13726 ft | 265 kts | 258° |
| 2026-04-15 16:37 | 51.67988 | 0.61029 | 13430 ft | 262 kts | 258° |
| 2026-04-15 16:38 | 51.67777 | 0.58119 | 13138 ft | 262 kts | 258° |
| 2026-04-15 16:38 | 51.67590 | 0.55540 | 12881 ft | 262 kts | 258° |
| 2026-04-15 16:38 | 51.67380 | 0.52640 | 12589 ft | 260 kts | 258° |
| 2026-04-15 16:38 | 51.67170 | 0.49748 | 12308 ft | 259 kts | 258° |
| 2026-04-15 16:39 | 51.66924 | 0.46894 | 12040 ft | 254 kts | 250° |
| 2026-04-15 16:39 | 51.66291 | 0.44298 | 11593 ft | 247 kts | 241° |
| 2026-04-15 16:39 | 51.65553 | 0.41807 | 11021 ft | 246 kts | 241° |
| 2026-04-15 16:39 | 51.64810 | 0.39326 | 10429 ft | 246 kts | 241° |
| 2026-04-15 16:40 | 51.64069 | 0.36844 | 9824 ft | 244 kts | 241° |
| 2026-04-15 16:40 | 51.63331 | 0.34389 | 9185 ft | 243 kts | 241° |
| 2026-04-15 16:40 | 51.62587 | 0.31946 | 8546 ft | 241 kts | 241° |
| 2026-04-15 16:40 | 51.61848 | 0.29534 | 7931 ft | 241 kts | 241° |
| 2026-04-15 16:41 | 51.61104 | 0.27129 | 7367 ft | 238 kts | 241° |
| 2026-04-15 16:41 | 51.60358 | 0.24748 | 6784 ft | 238 kts | 241° |
| 2026-04-15 16:41 | 51.59611 | 0.22383 | 6206 ft | 236 kts | 241° |
| 2026-04-15 16:41 | 51.58891 | 0.20105 | 5618 ft | 236 kts | 241° |
| 2026-04-15 16:42 | 51.58146 | 0.17759 | 5188 ft | 231 kts | 241° |
| 2026-04-15 16:42 | 51.57464 | 0.15607 | 5060 ft | 248 kts | 241° |
| 2026-04-15 16:42 | 51.56799 | 0.13525 | 5019 ft | 262 kts | 241° |
| 2026-04-15 16:42 | 51.56069 | 0.11217 | 5016 ft | 241 kts | 241° |
| 2026-04-15 16:43 | 51.55347 | 0.08941 | 5016 ft | 216 kts | 241° |
| 2026-04-15 16:43 | 51.54703 | 0.06899 | 5017 ft | 192 kts | 241° |
| 2026-04-15 16:43 | 51.54139 | 0.05091 | 5023 ft | 182 kts | 241° |
| 2026-04-15 16:43 | 51.53578 | 0.03273 | 5018 ft | 182 kts | 241° |
| 2026-04-15 16:44 | 51.53108 | 0.01736 | 5022 ft | 183 kts | 241° |
| 2026-04-15 16:44 | 51.52609 | 0.00108 | 5014 ft | 179 kts | 241° |
| 2026-04-15 16:44 | 51.52069 | -0.01629 | 4967 ft | 161 kts | 241° |
| 2026-04-15 16:44 | 51.51583 | -0.03169 | 4657 ft | 156 kts | 241° |
| 2026-04-15 16:45 | 51.51090 | -0.04720 | 4320 ft | 156 kts | 240° |
| 2026-04-15 16:45 | 51.50607 | -0.06260 | 4050 ft | 154 kts | 241° |
| 2026-04-15 16:45 | 51.50112 | -0.07844 | 3907 ft | 159 kts | 241° |
| 2026-04-15 16:45 | 51.49647 | -0.09341 | 3714 ft | 155 kts | 241° |
| 2026-04-15 16:46 | 51.49167 | -0.10876 | 3350 ft | 153 kts | 241° |
| 2026-04-15 16:46 | 51.48695 | -0.12396 | 3060 ft | 152 kts | 241° |
| 2026-04-15 16:46 | 51.48264 | -0.13983 | 3001 ft | 157 kts | 248° |
| 2026-04-15 16:46 | 51.48037 | -0.15711 | 3006 ft | 159 kts | 257° |
| 2026-04-15 16:47 | 51.47960 | -0.17504 | 2993 ft | 165 kts | 261° |
| 2026-04-15 16:47 | 51.47945 | -0.19341 | 2914 ft | 162 kts | 263° |
| 2026-04-15 16:47 | 51.47932 | -0.20986 | 2844 ft | 164 kts | 263° |
| 2026-04-15 16:47 | 51.47921 | -0.22821 | 2647 ft | 162 kts | 264° |
| 2026-04-15 16:48 | 51.47912 | -0.24551 | 2442 ft | 147 kts | 263° |
| 2026-04-15 16:48 | 51.47906 | -0.25583 | 2307 ft | 137 kts | 263° |
| 2026-04-15 16:48 | 51.47891 | -0.27168 | 2116 ft | 143 kts | 262° |
| 2026-04-15 16:48 | 51.47881 | -0.28779 | 1919 ft | 145 kts | 262° |
| 2026-04-15 16:49 | 51.47870 | -0.30406 | 1728 ft | 145 kts | 262° |
| 2026-04-15 16:49 | 51.47855 | -0.32581 | 1454 ft | 150 kts | 262° |
| 2026-04-15 16:49 | 51.47849 | -0.33705 | 1318 ft | 148 kts | 262° |
| 2026-04-15 16:49 | 51.47841 | -0.35303 | 1113 ft | 141 kts | 261° |
| 2026-04-15 16:50 | 51.47830 | -0.36813 | 918 ft | 129 kts | 262° |
| 2026-04-15 16:50 | 51.47823 | -0.38181 | 749 ft | 117 kts | 262° |
| 2026-04-15 16:50 | 51.47809 | -0.39435 | 605 ft | 124 kts | 264° |
| 2026-04-15 16:50 | 51.47803 | -0.40858 | 429 ft | 127 kts | 264° |
| 2026-04-15 16:51 | 51.47795 | -0.42251 | 280 ft | 121 kts | 263° |
| 2026-04-15 16:51 | 51.47777 | -0.43582 | 118 ft | 119 kts | 263° |
| 2026-04-15 16:51 | 51.47758 | -0.44794 | 96 ft | 81 kts | 270° |
| 2026-04-15 16:51 | 51.47763 | -0.45273 | 90 ft | 32 kts | 269° |
| 2026-04-15 16:52 | 51.47656 | -0.45466 | 87 ft | 26 kts | 184° |
| 2026-04-15 16:52 | 51.47626 | -0.45467 | 88 ft | 0 kts | 179° |
| 2026-04-15 16:53 | 51.47621 | -0.45467 | 88 ft | 0 kts | 180° |
| 2026-04-15 16:53 | 51.47605 | -0.45477 | 91 ft | 4 kts | 210° |
| 2026-04-15 16:54 | 51.47591 | -0.45566 | 88 ft | 12 kts | 270° |
| 2026-04-15 16:54 | 51.47593 | -0.45724 | 88 ft | 13 kts | 271° |
| 2026-04-15 16:54 | 51.47594 | -0.45763 | 90 ft | 0 kts | 271° |
| 2026-04-15 16:55 | 51.47594 | -0.45773 | 89 ft | 0 kts | 270° |
| 2026-04-15 16:56 | 51.47594 | -0.45785 | 90 ft | 4 kts | 270° |
| 2026-04-15 16:56 | 51.47594 | -0.45875 | 91 ft | 14 kts | 270° |
| 2026-04-15 16:56 | 51.47593 | -0.46056 | 89 ft | 22 kts | 270° |
| 2026-04-15 16:57 | 51.47591 | -0.46290 | 91 ft | 24 kts | 270° |
| 2026-04-15 16:57 | 51.47589 | -0.46567 | 94 ft | 25 kts | 268° |
| 2026-04-15 16:57 | 51.47583 | -0.46798 | 95 ft | 26 kts | 270° |
| 2026-04-15 16:57 | 51.47583 | -0.47051 | 92 ft | 27 kts | 269° |
| 2026-04-15 16:58 | 51.47582 | -0.47354 | 90 ft | 28 kts | 270° |
| 2026-04-15 16:58 | 51.47584 | -0.47665 | 91 ft | 28 kts | 269° |
| 2026-04-15 16:58 | 51.47576 | -0.47973 | 91 ft | 27 kts | 267° |
| 2026-04-15 16:58 | 51.47576 | -0.48260 | 91 ft | 26 kts | 279° |
| 2026-04-15 16:59 | 51.47537 | -0.48476 | 93 ft | 18 kts | 189° |
| 2026-04-15 16:59 | 51.47410 | -0.48474 | 88 ft | 9 kts | 178° |
| 2026-04-15 16:59 | 51.47407 | -0.48474 | 88 ft | 0 kts | 179° |
| 2026-04-15 17:01 | 51.47400 | -0.48474 | 87 ft | 5 kts | 179° |
| 2026-04-15 17:02 | 51.47334 | -0.48473 | 87 ft | 13 kts | 180° |
| 2026-04-15 17:02 | 51.47263 | -0.48472 | 90 ft | 1 kts | 180° |
| 2026-04-15 17:02 | 51.47257 | -0.48472 | 89 ft | 1 kts | 180° |
| 2026-04-15 17:02 | 51.47252 | -0.48472 | 89 ft | 2 kts | 180° |
| 2026-04-15 17:03 | 51.47205 | -0.48477 | 88 ft | 12 kts | 185° |
| 2026-04-15 17:03 | 51.47113 | -0.48486 | 88 ft | 15 kts | 180° |
| 2026-04-15 17:03 | 51.47061 | -0.48511 | 91 ft | 4 kts | 249° |
| 2026-04-15 17:03 | 51.47060 | -0.48615 | 90 ft | 11 kts | 269° |
| 2026-04-15 17:04 | 51.47060 | -0.48625 | 89 ft | 0 kts | 269° |
| 2026-04-15 17:05 | 51.47088 | -0.48577 | 91 ft | 0 kts | 270° |
| 2026-04-15 17:08 | 51.47087 | -0.48590 | 92 ft | 0 kts | 269° |